sensor_id;sensor_type;location;lat;lon;timestamp;P1;durP1;ratioP1;P2;durP2;ratioP2
51358;SDS011;37448;51.588;7.248;2023-02-03T00:01:25;19.13;;;12.35;;
51358;SDS011;37448;51.588;7.248;2023-02-03T00:03:25;30.13;;;14.23;;
51358;SDS011;37448;51.588;7.248;2023-02-03T00:05:26;27.17;;;12.43;;
51358;SDS011;37448;51.588;7.248;2023-02-03T00:07:27;21.50;;;12.50;;
51358;SDS011;37448;51.588;7.248;2023-02-03T00:09:28;24.98;;;12.63;;
51358;SDS011;37448;51.588;7.248;2023-02-03T00:11:29;26.02;;;14.25;;
51358;SDS011;37448;51.588;7.248;2023-02-03T00:13:30;23.02;;;12.25;;
51358;SDS011;37448;51.588;7.248;2023-02-03T00:15:30;21.60;;;12.60;;
51358;SDS011;37448;51.588;7.248;2023-02-03T00:17:31;23.10;;;13.25;;
51358;SDS011;37448;51.588;7.248;2023-02-03T00:19:31;19.67;;;11.35;;
51358;SDS011;37448;51.588;7.248;2023-02-03T00:21:31;20.65;;;11.55;;
51358;SDS011;37448;51.588;7.248;2023-02-03T00:23:32;23.05;;;12.70;;
51358;SDS011;37448;51.588;7.248;2023-02-03T00:25:33;21.85;;;12.88;;
51358;SDS011;37448;51.588;7.248;2023-02-03T00:27:34;17.90;;;12.30;;
51358;SDS011;37448;51.588;7.248;2023-02-03T00:29:34;24.55;;;13.45;;
51358;SDS011;37448;51.588;7.248;2023-02-03T00:31:35;22.40;;;13.25;;
51358;SDS011;37448;51.588;7.248;2023-02-03T00:33:35;20.38;;;12.20;;
51358;SDS011;37448;51.588;7.248;2023-02-03T00:35:38;22.10;;;12.60;;
51358;SDS011;37448;51.588;7.248;2023-02-03T00:37:39;20.15;;;12.85;;
51358;SDS011;37448;51.588;7.248;2023-02-03T00:39:40;25.98;;;12.10;;
51358;SDS011;37448;51.588;7.248;2023-02-03T00:41:41;23.05;;;12.65;;
51358;SDS011;37448;51.588;7.248;2023-02-03T00:43:41;25.25;;;13.73;;
51358;SDS011;37448;51.588;7.248;2023-02-03T00:45:42;19.42;;;12.18;;
51358;SDS011;37448;51.588;7.248;2023-02-03T00:47:43;26.20;;;12.60;;
51358;SDS011;37448;51.588;7.248;2023-02-03T00:49:43;21.95;;;11.88;;
51358;SDS011;37448;51.588;7.248;2023-02-03T00:51:43;24.58;;;12.20;;
51358;SDS011;37448;51.588;7.248;2023-02-03T00:53:44;22.15;;;12.48;;
51358;SDS011;37448;51.588;7.248;2023-02-03T00:55:44;24.73;;;12.63;;
51358;SDS011;37448;51.588;7.248;2023-02-03T00:57:44;23.45;;;12.13;;
51358;SDS011;37448;51.588;7.248;2023-02-03T00:59:45;24.60;;;11.85;;
51358;SDS011;37448;51.588;7.248;2023-02-03T01:01:45;18.23;;;11.00;;
51358;SDS011;37448;51.588;7.248;2023-02-03T01:03:45;28.98;;;13.30;;
51358;SDS011;37448;51.588;7.248;2023-02-03T01:05:46;18.23;;;11.02;;
51358;SDS011;37448;51.588;7.248;2023-02-03T01:07:46;21.83;;;12.88;;
51358;SDS011;37448;51.588;7.248;2023-02-03T01:09:47;17.98;;;11.27;;
51358;SDS011;37448;51.588;7.248;2023-02-03T01:11:47;20.08;;;12.05;;
51358;SDS011;37448;51.588;7.248;2023-02-03T01:13:48;22.25;;;12.27;;
51358;SDS011;37448;51.588;7.248;2023-02-03T01:15:49;22.25;;;11.57;;
51358;SDS011;37448;51.588;7.248;2023-02-03T01:17:49;25.45;;;11.02;;
51358;SDS011;37448;51.588;7.248;2023-02-03T01:19:51;22.33;;;11.93;;
51358;SDS011;37448;51.588;7.248;2023-02-03T01:21:51;19.83;;;12.38;;
51358;SDS011;37448;51.588;7.248;2023-02-03T01:23:52;20.55;;;12.00;;
51358;SDS011;37448;51.588;7.248;2023-02-03T01:25:53;25.58;;;12.10;;
51358;SDS011;37448;51.588;7.248;2023-02-03T01:27:53;21.08;;;11.63;;
51358;SDS011;37448;51.588;7.248;2023-02-03T01:29:53;25.67;;;12.65;;
51358;SDS011;37448;51.588;7.248;2023-02-03T01:31:54;20.42;;;11.50;;
51358;SDS011;37448;51.588;7.248;2023-02-03T01:33:54;21.98;;;11.20;;
51358;SDS011;37448;51.588;7.248;2023-02-03T01:35:58;21.20;;;11.25;;
51358;SDS011;37448;51.588;7.248;2023-02-03T01:37:59;21.50;;;11.45;;
51358;SDS011;37448;51.588;7.248;2023-02-03T01:40:00;22.70;;;12.32;;
51358;SDS011;37448;51.588;7.248;2023-02-03T01:42:00;21.00;;;12.60;;
51358;SDS011;37448;51.588;7.248;2023-02-03T01:44:01;21.52;;;11.77;;
51358;SDS011;37448;51.588;7.248;2023-02-03T01:46:23;19.27;;;11.10;;
51358;SDS011;37448;51.588;7.248;2023-02-03T01:48:34;19.88;;;10.48;;
51358;SDS011;37448;51.588;7.248;2023-02-03T01:50:35;23.10;;;10.57;;
51358;SDS011;37448;51.588;7.248;2023-02-03T01:52:39;20.65;;;11.90;;
51358;SDS011;37448;51.588;7.248;2023-02-03T01:54:42;22.70;;;11.30;;
51358;SDS011;37448;51.588;7.248;2023-02-03T01:56:46;18.40;;;10.38;;
51358;SDS011;37448;51.588;7.248;2023-02-03T01:58:51;20.35;;;11.63;;
51358;SDS011;37448;51.588;7.248;2023-02-03T02:00:51;16.40;;;9.20;;
51358;SDS011;37448;51.588;7.248;2023-02-03T02:02:53;18.75;;;10.27;;
51358;SDS011;37448;51.588;7.248;2023-02-03T02:04:56;19.13;;;10.20;;
51358;SDS011;37448;51.588;7.248;2023-02-03T02:07:03;15.98;;;10.60;;
51358;SDS011;37448;51.588;7.248;2023-02-03T02:09:06;15.70;;;9.70;;
51358;SDS011;37448;51.588;7.248;2023-02-03T02:11:07;14.98;;;9.40;;
51358;SDS011;37448;51.588;7.248;2023-02-03T02:13:08;14.15;;;8.25;;
51358;SDS011;37448;51.588;7.248;2023-02-03T02:15:08;15.90;;;9.65;;
51358;SDS011;37448;51.588;7.248;2023-02-03T02:17:23;18.30;;;10.02;;
51358;SDS011;37448;51.588;7.248;2023-02-03T02:38:31;14.88;;;8.07;;
51358;SDS011;37448;51.588;7.248;2023-02-03T02:40:47;14.95;;;8.60;;
51358;SDS011;37448;51.588;7.248;2023-02-03T02:45:14;17.67;;;9.68;;
51358;SDS011;37448;51.588;7.248;2023-02-03T02:47:22;17.85;;;9.32;;
51358;SDS011;37448;51.588;7.248;2023-02-03T02:49:32;17.15;;;9.35;;
51358;SDS011;37448;51.588;7.248;2023-02-03T02:51:38;14.35;;;8.18;;
51358;SDS011;37448;51.588;7.248;2023-02-03T02:53:45;15.88;;;8.43;;
51358;SDS011;37448;51.588;7.248;2023-02-03T02:55:49;13.68;;;7.85;;
51358;SDS011;37448;51.588;7.248;2023-02-03T02:57:53;11.50;;;6.55;;
51358;SDS011;37448;51.588;7.248;2023-02-03T02:59:56;13.75;;;7.75;;
51358;SDS011;37448;51.588;7.248;2023-02-03T03:01:58;14.52;;;8.55;;
51358;SDS011;37448;51.588;7.248;2023-02-03T03:03:59;20.40;;;8.82;;
51358;SDS011;37448;51.588;7.248;2023-02-03T03:06:05;14.35;;;7.05;;
51358;SDS011;37448;51.588;7.248;2023-02-03T03:08:11;11.77;;;7.88;;
51358;SDS011;37448;51.588;7.248;2023-02-03T03:10:14;14.60;;;7.90;;
51358;SDS011;37448;51.588;7.248;2023-02-03T03:12:23;18.38;;;9.45;;
51358;SDS011;37448;51.588;7.248;2023-02-03T03:14:28;13.10;;;7.53;;
51358;SDS011;37448;51.588;7.248;2023-02-03T03:16:31;14.73;;;9.43;;
51358;SDS011;37448;51.588;7.248;2023-02-03T03:18:37;14.88;;;7.22;;
51358;SDS011;37448;51.588;7.248;2023-02-03T03:20:42;17.15;;;8.68;;
51358;SDS011;37448;51.588;7.248;2023-02-03T03:22:47;13.25;;;7.72;;
51358;SDS011;37448;51.588;7.248;2023-02-03T03:24:54;13.60;;;8.20;;
51358;SDS011;37448;51.588;7.248;2023-02-03T03:27:11;17.58;;;9.60;;
51358;SDS011;37448;51.588;7.248;2023-02-03T03:29:19;13.35;;;7.47;;
51358;SDS011;37448;51.588;7.248;2023-02-03T03:31:23;13.05;;;7.35;;
51358;SDS011;37448;51.588;7.248;2023-02-03T03:33:23;20.63;;;7.68;;
51358;SDS011;37448;51.588;7.248;2023-02-03T03:35:24;11.40;;;7.72;;
51358;SDS011;37448;51.588;7.248;2023-02-03T03:37:35;12.75;;;7.35;;
51358;SDS011;37448;51.588;7.248;2023-02-03T03:39:47;14.10;;;6.57;;
51358;SDS011;37448;51.588;7.248;2023-02-03T03:44:16;12.55;;;6.05;;
51358;SDS011;37448;51.588;7.248;2023-02-03T03:46:20;14.65;;;6.43;;
51358;SDS011;37448;51.588;7.248;2023-02-03T03:50:28;10.25;;;5.45;;
51358;SDS011;37448;51.588;7.248;2023-02-03T03:52:33;14.35;;;6.03;;
51358;SDS011;37448;51.588;7.248;2023-02-03T03:54:36;12.75;;;6.43;;
51358;SDS011;37448;51.588;7.248;2023-02-03T03:56:39;11.93;;;5.80;;
51358;SDS011;37448;51.588;7.248;2023-02-03T03:58:44;12.32;;;5.57;;
51358;SDS011;37448;51.588;7.248;2023-02-03T04:00:45;10.75;;;5.70;;
51358;SDS011;37448;51.588;7.248;2023-02-03T04:02:49;10.80;;;6.32;;
51358;SDS011;37448;51.588;7.248;2023-02-03T04:04:52;11.35;;;6.03;;
51358;SDS011;37448;51.588;7.248;2023-02-03T04:06:53;7.65;;;5.13;;
51358;SDS011;37448;51.588;7.248;2023-02-03T04:08:54;12.23;;;5.78;;
51358;SDS011;37448;51.588;7.248;2023-02-03T04:10:55;10.95;;;5.00;;
51358;SDS011;37448;51.588;7.248;2023-02-03T04:12:56;17.25;;;5.25;;
51358;SDS011;37448;51.588;7.248;2023-02-03T04:14:56;9.95;;;5.40;;
51358;SDS011;37448;51.588;7.248;2023-02-03T04:16:57;12.35;;;5.72;;
51358;SDS011;37448;51.588;7.248;2023-02-03T04:18:57;8.68;;;4.72;;
51358;SDS011;37448;51.588;7.248;2023-02-03T04:20:58;9.60;;;4.63;;
51358;SDS011;37448;51.588;7.248;2023-02-03T04:22:58;14.32;;;5.57;;
51358;SDS011;37448;51.588;7.248;2023-02-03T04:24:59;10.77;;;4.70;;
51358;SDS011;37448;51.588;7.248;2023-02-03T04:27:00;10.20;;;5.47;;
51358;SDS011;37448;51.588;7.248;2023-02-03T04:29:00;7.45;;;4.30;;
51358;SDS011;37448;51.588;7.248;2023-02-03T04:31:01;9.80;;;5.32;;
51358;SDS011;37448;51.588;7.248;2023-02-03T04:33:03;9.73;;;5.85;;
51358;SDS011;37448;51.588;7.248;2023-02-03T04:35:04;11.48;;;5.47;;
51358;SDS011;37448;51.588;7.248;2023-02-03T04:37:05;11.48;;;5.00;;
51358;SDS011;37448;51.588;7.248;2023-02-03T04:39:05;8.68;;;4.93;;
51358;SDS011;37448;51.588;7.248;2023-02-03T04:41:06;8.60;;;4.40;;
51358;SDS011;37448;51.588;7.248;2023-02-03T04:43:06;8.20;;;4.75;;
51358;SDS011;37448;51.588;7.248;2023-02-03T04:45:09;8.48;;;5.00;;
51358;SDS011;37448;51.588;7.248;2023-02-03T04:47:11;9.80;;;5.38;;
51358;SDS011;37448;51.588;7.248;2023-02-03T04:49:11;10.00;;;4.75;;
51358;SDS011;37448;51.588;7.248;2023-02-03T04:51:12;8.43;;;4.25;;
51358;SDS011;37448;51.588;7.248;2023-02-03T04:53:12;11.52;;;5.50;;
51358;SDS011;37448;51.588;7.248;2023-02-03T04:55:13;8.73;;;5.05;;
51358;SDS011;37448;51.588;7.248;2023-02-03T04:57:13;6.28;;;4.97;;
51358;SDS011;37448;51.588;7.248;2023-02-03T04:59:13;6.90;;;4.25;;
51358;SDS011;37448;51.588;7.248;2023-02-03T05:01:14;8.15;;;4.15;;
51358;SDS011;37448;51.588;7.248;2023-02-03T05:03:14;10.45;;;4.63;;
51358;SDS011;37448;51.588;7.248;2023-02-03T05:05:15;8.50;;;3.97;;
51358;SDS011;37448;51.588;7.248;2023-02-03T05:07:15;8.10;;;4.50;;
51358;SDS011;37448;51.588;7.248;2023-02-03T05:09:15;9.20;;;4.57;;
51358;SDS011;37448;51.588;7.248;2023-02-03T05:11:16;6.97;;;3.90;;
51358;SDS011;37448;51.588;7.248;2023-02-03T05:13:16;4.82;;;3.47;;
51358;SDS011;37448;51.588;7.248;2023-02-03T05:15:17;7.55;;;3.55;;
51358;SDS011;37448;51.588;7.248;2023-02-03T05:17:17;10.38;;;3.70;;
51358;SDS011;37448;51.588;7.248;2023-02-03T05:19:17;7.68;;;3.90;;
51358;SDS011;37448;51.588;7.248;2023-02-03T05:21:18;7.40;;;3.70;;
51358;SDS011;37448;51.588;7.248;2023-02-03T05:23:18;12.25;;;3.85;;
51358;SDS011;37448;51.588;7.248;2023-02-03T05:25:19;8.75;;;3.38;;
51358;SDS011;37448;51.588;7.248;2023-02-03T05:27:19;5.57;;;3.67;;
51358;SDS011;37448;51.588;7.248;2023-02-03T05:29:19;4.55;;;3.03;;
51358;SDS011;37448;51.588;7.248;2023-02-03T05:31:20;7.00;;;2.95;;
51358;SDS011;37448;51.588;7.248;2023-02-03T05:33:20;7.07;;;3.55;;
51358;SDS011;37448;51.588;7.248;2023-02-03T05:35:20;5.20;;;3.03;;
51358;SDS011;37448;51.588;7.248;2023-02-03T05:37:21;8.38;;;3.22;;
51358;SDS011;37448;51.588;7.248;2023-02-03T05:39:21;8.18;;;3.63;;
51358;SDS011;37448;51.588;7.248;2023-02-03T05:41:22;9.13;;;3.65;;
51358;SDS011;37448;51.588;7.248;2023-02-03T05:43:41;6.72;;;2.90;;
51358;SDS011;37448;51.588;7.248;2023-02-03T05:45:41;7.40;;;3.15;;
51358;SDS011;37448;51.588;7.248;2023-02-03T05:47:41;7.50;;;3.17;;
51358;SDS011;37448;51.588;7.248;2023-02-03T05:49:42;4.32;;;2.80;;
51358;SDS011;37448;51.588;7.248;2023-02-03T05:51:42;7.38;;;3.38;;
51358;SDS011;37448;51.588;7.248;2023-02-03T05:53:42;4.60;;;2.40;;
51358;SDS011;37448;51.588;7.248;2023-02-03T05:55:43;5.78;;;2.53;;
51358;SDS011;37448;51.588;7.248;2023-02-03T05:57:43;6.93;;;2.80;;
51358;SDS011;37448;51.588;7.248;2023-02-03T05:59:44;5.30;;;2.33;;
51358;SDS011;37448;51.588;7.248;2023-02-03T06:01:44;10.02;;;3.08;;
51358;SDS011;37448;51.588;7.248;2023-02-03T06:03:45;5.25;;;2.90;;
51358;SDS011;37448;51.588;7.248;2023-02-03T06:05:45;7.97;;;2.80;;
51358;SDS011;37448;51.588;7.248;2023-02-03T06:07:46;8.05;;;3.08;;
51358;SDS011;37448;51.588;7.248;2023-02-03T06:09:47;5.28;;;2.90;;
51358;SDS011;37448;51.588;7.248;2023-02-03T06:11:48;6.55;;;2.90;;
51358;SDS011;37448;51.588;7.248;2023-02-03T06:13:49;7.30;;;2.63;;
51358;SDS011;37448;51.588;7.248;2023-02-03T06:15:49;5.55;;;2.53;;
51358;SDS011;37448;51.588;7.248;2023-02-03T06:17:50;7.68;;;2.58;;
51358;SDS011;37448;51.588;7.248;2023-02-03T06:19:55;7.10;;;2.55;;
51358;SDS011;37448;51.588;7.248;2023-02-03T06:21:56;6.13;;;2.50;;
51358;SDS011;37448;51.588;7.248;2023-02-03T06:23:56;5.18;;;2.58;;
51358;SDS011;37448;51.588;7.248;2023-02-03T06:25:57;6.38;;;2.47;;
51358;SDS011;37448;51.588;7.248;2023-02-03T06:27:59;6.47;;;2.45;;
51358;SDS011;37448;51.588;7.248;2023-02-03T06:30:00;4.43;;;2.00;;
51358;SDS011;37448;51.588;7.248;2023-02-03T06:32:00;7.82;;;2.17;;
51358;SDS011;37448;51.588;7.248;2023-02-03T06:34:00;3.80;;;1.92;;
51358;SDS011;37448;51.588;7.248;2023-02-03T06:36:01;7.97;;;2.67;;
51358;SDS011;37448;51.588;7.248;2023-02-03T06:38:02;7.18;;;2.38;;
51358;SDS011;37448;51.588;7.248;2023-02-03T06:40:02;4.30;;;1.95;;
51358;SDS011;37448;51.588;7.248;2023-02-03T06:42:03;7.70;;;2.60;;
51358;SDS011;37448;51.588;7.248;2023-02-03T06:44:03;4.15;;;1.92;;
51358;SDS011;37448;51.588;7.248;2023-02-03T06:46:04;4.88;;;2.58;;
51358;SDS011;37448;51.588;7.248;2023-02-03T06:48:04;3.63;;;1.75;;
51358;SDS011;37448;51.588;7.248;2023-02-03T06:50:05;3.40;;;2.30;;
51358;SDS011;37448;51.588;7.248;2023-02-03T06:52:05;11.93;;;3.05;;
51358;SDS011;37448;51.588;7.248;2023-02-03T06:54:06;8.50;;;2.60;;
51358;SDS011;37448;51.588;7.248;2023-02-03T06:56:06;6.03;;;2.97;;
51358;SDS011;37448;51.588;7.248;2023-02-03T06:58:07;4.97;;;2.70;;
51358;SDS011;37448;51.588;7.248;2023-02-03T07:00:08;6.80;;;3.08;;
51358;SDS011;37448;51.588;7.248;2023-02-03T07:02:10;8.80;;;3.33;;
51358;SDS011;37448;51.588;7.248;2023-02-03T07:04:11;5.40;;;2.78;;
51358;SDS011;37448;51.588;7.248;2023-02-03T07:06:11;10.65;;;3.53;;
51358;SDS011;37448;51.588;7.248;2023-02-03T07:08:12;5.75;;;2.78;;
51358;SDS011;37448;51.588;7.248;2023-02-03T07:10:13;6.78;;;2.70;;
51358;SDS011;37448;51.588;7.248;2023-02-03T07:12:13;6.82;;;2.75;;
51358;SDS011;37448;51.588;7.248;2023-02-03T07:14:13;5.80;;;2.65;;
51358;SDS011;37448;51.588;7.248;2023-02-03T07:16:14;4.57;;;2.67;;
51358;SDS011;37448;51.588;7.248;2023-02-03T07:18:14;5.25;;;2.95;;
51358;SDS011;37448;51.588;7.248;2023-02-03T07:20:15;5.30;;;2.55;;
51358;SDS011;37448;51.588;7.248;2023-02-03T07:22:15;6.00;;;3.17;;
51358;SDS011;37448;51.588;7.248;2023-02-03T07:24:16;6.65;;;2.78;;
51358;SDS011;37448;51.588;7.248;2023-02-03T07:26:16;7.82;;;2.92;;
51358;SDS011;37448;51.588;7.248;2023-02-03T07:28:17;6.53;;;2.92;;
51358;SDS011;37448;51.588;7.248;2023-02-03T07:30:18;6.38;;;2.60;;
51358;SDS011;37448;51.588;7.248;2023-02-03T07:32:18;7.78;;;2.72;;
51358;SDS011;37448;51.588;7.248;2023-02-03T07:34:19;5.53;;;3.03;;
51358;SDS011;37448;51.588;7.248;2023-02-03T07:36:19;3.90;;;2.60;;
51358;SDS011;37448;51.588;7.248;2023-02-03T07:38:20;5.80;;;2.85;;
51358;SDS011;37448;51.588;7.248;2023-02-03T07:40:20;7.20;;;2.58;;
51358;SDS011;37448;51.588;7.248;2023-02-03T07:42:21;6.07;;;2.80;;
51358;SDS011;37448;51.588;7.248;2023-02-03T07:44:24;5.38;;;2.85;;
51358;SDS011;37448;51.588;7.248;2023-02-03T07:46:24;4.93;;;2.53;;
51358;SDS011;37448;51.588;7.248;2023-02-03T07:48:24;9.77;;;2.38;;
51358;SDS011;37448;51.588;7.248;2023-02-03T07:50:25;9.23;;;2.85;;
51358;SDS011;37448;51.588;7.248;2023-02-03T07:52:25;6.75;;;2.50;;
51358;SDS011;37448;51.588;7.248;2023-02-03T07:54:25;7.47;;;2.58;;
51358;SDS011;37448;51.588;7.248;2023-02-03T07:56:26;4.32;;;2.33;;
51358;SDS011;37448;51.588;7.248;2023-02-03T07:58:26;6.47;;;2.30;;
51358;SDS011;37448;51.588;7.248;2023-02-03T08:00:27;4.15;;;2.08;;
51358;SDS011;37448;51.588;7.248;2023-02-03T08:02:28;6.65;;;2.40;;
51358;SDS011;37448;51.588;7.248;2023-02-03T08:04:28;5.07;;;2.70;;
51358;SDS011;37448;51.588;7.248;2023-02-03T08:06:28;5.05;;;2.13;;
51358;SDS011;37448;51.588;7.248;2023-02-03T08:08:30;5.60;;;2.58;;
51358;SDS011;37448;51.588;7.248;2023-02-03T08:10:30;3.78;;;1.92;;
51358;SDS011;37448;51.588;7.248;2023-02-03T08:12:31;6.90;;;2.25;;
51358;SDS011;37448;51.588;7.248;2023-02-03T08:14:31;4.60;;;2.10;;
51358;SDS011;37448;51.588;7.248;2023-02-03T08:16:32;8.95;;;2.45;;
51358;SDS011;37448;51.588;7.248;2023-02-03T08:18:32;5.88;;;2.20;;
51358;SDS011;37448;51.588;7.248;2023-02-03T08:20:32;4.38;;;2.42;;
51358;SDS011;37448;51.588;7.248;2023-02-03T08:22:33;6.45;;;2.15;;
51358;SDS011;37448;51.588;7.248;2023-02-03T08:24:33;4.45;;;2.13;;
51358;SDS011;37448;51.588;7.248;2023-02-03T08:26:36;4.97;;;2.63;;
51358;SDS011;37448;51.588;7.248;2023-02-03T08:28:37;6.38;;;2.10;;
51358;SDS011;37448;51.588;7.248;2023-02-03T08:30:37;4.68;;;1.55;;
51358;SDS011;37448;51.588;7.248;2023-02-03T08:32:37;4.10;;;2.33;;
51358;SDS011;37448;51.588;7.248;2023-02-03T08:34:38;6.30;;;2.38;;
51358;SDS011;37448;51.588;7.248;2023-02-03T08:36:39;5.43;;;2.45;;
51358;SDS011;37448;51.588;7.248;2023-02-03T08:38:39;5.95;;;2.47;;
51358;SDS011;37448;51.588;7.248;2023-02-03T08:40:40;4.63;;;2.08;;
51358;SDS011;37448;51.588;7.248;2023-02-03T08:42:41;3.25;;;2.53;;
51358;SDS011;37448;51.588;7.248;2023-02-03T08:44:43;4.25;;;2.30;;
51358;SDS011;37448;51.588;7.248;2023-02-03T08:46:43;3.53;;;1.98;;
51358;SDS011;37448;51.588;7.248;2023-02-03T08:48:43;5.70;;;2.40;;
51358;SDS011;37448;51.588;7.248;2023-02-03T08:50:44;6.90;;;2.30;;
51358;SDS011;37448;51.588;7.248;2023-02-03T08:52:50;3.00;;;2.15;;
51358;SDS011;37448;51.588;7.248;2023-02-03T08:54:51;7.72;;;2.63;;
51358;SDS011;37448;51.588;7.248;2023-02-03T08:56:52;5.28;;;2.58;;
51358;SDS011;37448;51.588;7.248;2023-02-03T08:58:53;7.07;;;2.65;;
51358;SDS011;37448;51.588;7.248;2023-02-03T09:00:54;9.63;;;2.35;;
51358;SDS011;37448;51.588;7.248;2023-02-03T09:02:54;6.68;;;2.40;;
51358;SDS011;37448;51.588;7.248;2023-02-03T09:04:55;5.25;;;2.63;;
51358;SDS011;37448;51.588;7.248;2023-02-03T09:06:55;4.53;;;2.30;;
51358;SDS011;37448;51.588;7.248;2023-02-03T09:08:56;5.80;;;2.50;;
51358;SDS011;37448;51.588;7.248;2023-02-03T09:10:56;6.18;;;2.67;;
51358;SDS011;37448;51.588;7.248;2023-02-03T09:12:56;6.45;;;2.97;;
51358;SDS011;37448;51.588;7.248;2023-02-03T09:14:57;7.63;;;2.63;;
51358;SDS011;37448;51.588;7.248;2023-02-03T09:17:00;8.35;;;3.28;;
51358;SDS011;37448;51.588;7.248;2023-02-03T09:19:02;4.90;;;2.55;;
51358;SDS011;37448;51.588;7.248;2023-02-03T09:21:03;5.85;;;2.60;;
51358;SDS011;37448;51.588;7.248;2023-02-03T09:23:05;4.57;;;3.05;;
51358;SDS011;37448;51.588;7.248;2023-02-03T09:25:06;6.40;;;2.97;;
51358;SDS011;37448;51.588;7.248;2023-02-03T09:27:06;6.65;;;2.97;;
51358;SDS011;37448;51.588;7.248;2023-02-03T09:29:07;5.90;;;2.90;;
51358;SDS011;37448;51.588;7.248;2023-02-03T09:31:08;7.00;;;3.30;;
51358;SDS011;37448;51.588;7.248;2023-02-03T09:33:10;5.72;;;3.40;;
51358;SDS011;37448;51.588;7.248;2023-02-03T09:35:10;7.32;;;3.40;;
51358;SDS011;37448;51.588;7.248;2023-02-03T09:37:10;4.35;;;2.47;;
51358;SDS011;37448;51.588;7.248;2023-02-03T09:39:11;5.80;;;2.95;;
51358;SDS011;37448;51.588;7.248;2023-02-03T09:45:39;5.00;;;2.65;;
51358;SDS011;37448;51.588;7.248;2023-02-03T09:47:40;4.38;;;2.80;;
51358;SDS011;37448;51.588;7.248;2023-02-03T09:49:45;6.50;;;3.15;;
51358;SDS011;37448;51.588;7.248;2023-02-03T09:51:51;7.28;;;2.67;;
51358;SDS011;37448;51.588;7.248;2023-02-03T09:53:56;6.25;;;3.08;;
51358;SDS011;37448;51.588;7.248;2023-02-03T09:56:05;6.30;;;3.17;;
51358;SDS011;37448;51.588;7.248;2023-02-03T09:58:08;5.57;;;3.08;;
51358;SDS011;37448;51.588;7.248;2023-02-03T10:00:16;9.13;;;2.85;;
51358;SDS011;37448;51.588;7.248;2023-02-03T10:06:40;4.25;;;2.60;;
51358;SDS011;37448;51.588;7.248;2023-02-03T10:10:59;5.10;;;2.40;;
51358;SDS011;37448;51.588;7.248;2023-02-03T10:17:51;8.75;;;3.50;;
51358;SDS011;37448;51.588;7.248;2023-02-03T10:20:00;7.57;;;4.03;;
51358;SDS011;37448;51.588;7.248;2023-02-03T10:22:01;11.05;;;2.95;;
51358;SDS011;37448;51.588;7.248;2023-02-03T10:24:14;8.40;;;3.75;;
51358;SDS011;37448;51.588;7.248;2023-02-03T10:26:20;4.93;;;2.88;;
51358;SDS011;37448;51.588;7.248;2023-02-03T10:31:02;4.95;;;2.50;;
51358;SDS011;37448;51.588;7.248;2023-02-03T10:33:17;4.28;;;2.63;;
51358;SDS011;37448;51.588;7.248;2023-02-03T10:35:18;7.25;;;3.15;;
51358;SDS011;37448;51.588;7.248;2023-02-03T10:37:24;7.30;;;2.75;;
51358;SDS011;37448;51.588;7.248;2023-02-03T10:39:34;6.78;;;2.95;;
51358;SDS011;37448;51.588;7.248;2023-02-03T10:41:41;8.65;;;3.28;;
51358;SDS011;37448;51.588;7.248;2023-02-03T10:43:42;7.88;;;3.92;;
51358;SDS011;37448;51.588;7.248;2023-02-03T10:45:50;5.82;;;3.38;;
51358;SDS011;37448;51.588;7.248;2023-02-03T10:47:51;10.80;;;4.03;;
51358;SDS011;37448;51.588;7.248;2023-02-03T10:49:55;6.60;;;3.15;;
51358;SDS011;37448;51.588;7.248;2023-02-03T10:51:57;7.40;;;3.67;;
51358;SDS011;37448;51.588;7.248;2023-02-03T10:54:03;9.20;;;3.97;;
51358;SDS011;37448;51.588;7.248;2023-02-03T10:56:06;5.40;;;3.60;;
51358;SDS011;37448;51.588;7.248;2023-02-03T10:58:16;9.02;;;4.43;;
51358;SDS011;37448;51.588;7.248;2023-02-03T11:00:22;9.68;;;3.40;;
51358;SDS011;37448;51.588;7.248;2023-02-03T11:02:28;6.72;;;3.30;;
51358;SDS011;37448;51.588;7.248;2023-02-03T11:04:30;9.05;;;3.85;;
51358;SDS011;37448;51.588;7.248;2023-02-03T11:06:32;5.05;;;3.30;;
51358;SDS011;37448;51.588;7.248;2023-02-03T11:08:36;8.80;;;4.03;;
51358;SDS011;37448;51.588;7.248;2023-02-03T11:10:45;9.02;;;3.28;;
51358;SDS011;37448;51.588;7.248;2023-02-03T11:12:45;10.15;;;4.07;;
51358;SDS011;37448;51.588;7.248;2023-02-03T11:16:51;8.23;;;3.72;;
51358;SDS011;37448;51.588;7.248;2023-02-03T11:20:58;8.80;;;3.55;;
51358;SDS011;37448;51.588;7.248;2023-02-03T11:22:58;7.57;;;3.00;;
51358;SDS011;37448;51.588;7.248;2023-02-03T11:24:59;10.20;;;3.50;;
51358;SDS011;37448;51.588;7.248;2023-02-03T11:27:08;9.13;;;3.72;;
51358;SDS011;37448;51.588;7.248;2023-02-03T11:29:20;8.15;;;4.35;;
51358;SDS011;37448;51.588;7.248;2023-02-03T11:31:27;8.65;;;3.55;;
51358;SDS011;37448;51.588;7.248;2023-02-03T11:33:30;8.40;;;3.47;;
51358;SDS011;37448;51.588;7.248;2023-02-03T11:35:30;7.95;;;3.10;;
51358;SDS011;37448;51.588;7.248;2023-02-03T11:37:39;8.90;;;3.85;;
51358;SDS011;37448;51.588;7.248;2023-02-03T11:39:41;7.75;;;3.42;;
51358;SDS011;37448;51.588;7.248;2023-02-03T11:41:41;11.63;;;4.03;;
51358;SDS011;37448;51.588;7.248;2023-02-03T11:43:41;12.02;;;4.05;;
51358;SDS011;37448;51.588;7.248;2023-02-03T11:45:43;9.70;;;4.00;;
51358;SDS011;37448;51.588;7.248;2023-02-03T11:47:50;11.35;;;3.95;;
51358;SDS011;37448;51.588;7.248;2023-02-03T11:50:06;10.20;;;5.25;;
51358;SDS011;37448;51.588;7.248;2023-02-03T11:52:17;14.10;;;5.05;;
51358;SDS011;37448;51.588;7.248;2023-02-03T11:54:44;9.15;;;4.00;;
51358;SDS011;37448;51.588;7.248;2023-02-03T11:59:35;10.80;;;3.20;;
51358;SDS011;37448;51.588;7.248;2023-02-03T12:02:03;8.57;;;3.72;;
51358;SDS011;37448;51.588;7.248;2023-02-03T12:23:26;4.18;;;2.40;;
51358;SDS011;37448;51.588;7.248;2023-02-03T12:25:32;7.30;;;3.63;;
51358;SDS011;37448;51.588;7.248;2023-02-03T12:30:12;6.47;;;2.50;;
51358;SDS011;37448;51.588;7.248;2023-02-03T12:32:25;3.50;;;2.00;;
51358;SDS011;37448;51.588;7.248;2023-02-03T12:34:56;4.45;;;2.75;;
51358;SDS011;37448;51.588;7.248;2023-02-03T12:37:05;3.55;;;2.78;;
51358;SDS011;37448;51.588;7.248;2023-02-03T12:39:21;9.27;;;3.40;;
51358;SDS011;37448;51.588;7.248;2023-02-03T12:41:30;6.43;;;2.90;;
51358;SDS011;37448;51.588;7.248;2023-02-03T12:43:38;5.18;;;2.42;;
51358;SDS011;37448;51.588;7.248;2023-02-03T12:45:41;7.13;;;2.40;;
51358;SDS011;37448;51.588;7.248;2023-02-03T12:47:54;5.45;;;2.92;;
51358;SDS011;37448;51.588;7.248;2023-02-03T12:50:02;4.13;;;2.00;;
51358;SDS011;37448;51.588;7.248;2023-02-03T12:52:50;6.93;;;2.25;;
51358;SDS011;37448;51.588;7.248;2023-02-03T12:55:07;6.05;;;2.50;;
51358;SDS011;37448;51.588;7.248;2023-02-03T12:57:15;5.72;;;2.30;;
51358;SDS011;37448;51.588;7.248;2023-02-03T12:59:22;7.57;;;2.38;;
51358;SDS011;37448;51.588;7.248;2023-02-03T13:01:30;7.10;;;1.90;;
51358;SDS011;37448;51.588;7.248;2023-02-03T13:08:24;9.63;;;2.58;;
51358;SDS011;37448;51.588;7.248;2023-02-03T13:10:32;4.72;;;2.33;;
51358;SDS011;37448;51.588;7.248;2023-02-03T13:12:51;8.32;;;1.95;;
51358;SDS011;37448;51.588;7.248;2023-02-03T13:15:03;13.25;;;2.83;;
51358;SDS011;37448;51.588;7.248;2023-02-03T13:17:28;6.70;;;2.13;;
51358;SDS011;37448;51.588;7.248;2023-02-03T13:19:36;6.22;;;2.03;;
51358;SDS011;37448;51.588;7.248;2023-02-03T13:21:43;3.72;;;2.00;;
51358;SDS011;37448;51.588;7.248;2023-02-03T13:23:45;5.93;;;2.40;;
51358;SDS011;37448;51.588;7.248;2023-02-03T13:25:58;11.73;;;2.33;;
51358;SDS011;37448;51.588;7.248;2023-02-03T13:35:55;9.73;;;2.45;;
51358;SDS011;37448;51.588;7.248;2023-02-03T13:42:45;8.45;;;2.60;;
51358;SDS011;37448;51.588;7.248;2023-02-03T13:45:05;5.88;;;1.63;;
51358;SDS011;37448;51.588;7.248;2023-02-03T13:47:14;14.15;;;2.70;;